createdAt,value
2018-04-18T00:00:15.634Z,9.30
2018-04-18T00:02:42.183Z,9.30
2018-04-18T00:05:08.678Z,9.20
2018-04-18T00:07:35.190Z,9.30
2018-04-18T00:10:01.710Z,9.20
2018-04-18T00:12:28.285Z,9.20
2018-04-18T00:14:54.808Z,9.20
2018-04-18T00:17:21.350Z,9.10
2018-04-18T00:19:47.930Z,9.00
2018-04-18T00:22:14.505Z,9.00
2018-04-18T00:24:41.090Z,8.90
2018-04-18T00:27:07.663Z,8.90
2018-04-18T00:29:34.236Z,9.00
2018-04-18T00:32:00.771Z,8.90
2018-04-18T00:34:27.287Z,8.90
2018-04-18T00:36:53.829Z,8.90
2018-04-18T00:39:20.327Z,8.90
2018-04-18T00:41:46.852Z,8.80
2018-04-18T00:44:13.427Z,8.80
2018-04-18T00:46:39.990Z,8.80
2018-04-18T00:49:07.525Z,8.80
2018-04-18T00:51:34.055Z,8.70
2018-04-18T00:54:01.307Z,8.70
2018-04-18T00:56:27.824Z,8.60
2018-04-18T00:58:54.333Z,8.60
2018-04-18T01:01:20.858Z,8.60
2018-04-18T01:03:48.166Z,8.60
2018-04-18T01:06:14.695Z,8.60
2018-04-18T01:08:41.276Z,8.60
2018-04-18T01:11:07.786Z,8.60
2018-04-18T01:13:34.306Z,8.50
2018-04-18T01:16:00.812Z,8.40
2018-04-18T01:18:27.346Z,8.60
2018-04-18T01:20:53.872Z,8.40
2018-04-18T01:23:20.397Z,8.40
2018-04-18T01:25:47.670Z,8.40
2018-04-18T01:28:14.191Z,8.30
2018-04-18T01:30:40.744Z,8.50
2018-04-18T01:33:07.297Z,8.40
2018-04-18T01:35:33.866Z,8.30
2018-04-18T01:38:00.394Z,8.30
2018-04-18T01:40:27.666Z,8.60
2018-04-18T01:42:55.008Z,8.50
2018-04-18T01:45:21.592Z,8.50
2018-04-18T01:47:48.110Z,8.40
2018-04-18T01:50:14.638Z,8.30
2018-04-18T01:52:41.213Z,8.30
2018-04-18T01:55:07.740Z,8.30
2018-04-18T01:57:34.314Z,8.20
2018-04-18T02:00:00.813Z,8.20
2018-04-18T02:02:27.364Z,8.10
2018-04-18T02:04:53.910Z,8.00
2018-04-18T02:07:20.418Z,8.10
2018-04-18T02:09:46.932Z,8.00
2018-04-18T02:12:14.234Z,8.00
2018-04-18T02:14:40.733Z,8.00
2018-04-18T02:17:07.232Z,7.90
2018-04-18T02:19:33.740Z,7.90
2018-04-18T02:22:00.268Z,7.90
2018-04-18T02:24:26.796Z,7.90
2018-04-18T02:26:53.342Z,7.80
2018-04-18T02:29:19.921Z,7.80
2018-04-18T02:31:46.487Z,7.70
2018-04-18T02:34:13.056Z,7.70
2018-04-18T02:36:39.664Z,7.80
2018-04-18T02:39:06.202Z,7.70
2018-04-18T02:41:32.766Z,7.70
2018-04-18T02:43:59.295Z,7.60
2018-04-18T02:46:25.859Z,7.60
2018-04-18T02:48:52.423Z,7.50
2018-04-18T02:51:19.750Z,7.60
2018-04-18T02:53:46.300Z,7.60
2018-04-18T02:56:12.821Z,7.60
2018-04-18T02:58:39.370Z,7.50
2018-04-18T03:01:05.936Z,7.50
2018-04-18T03:03:32.509Z,7.50
2018-04-18T03:05:59.010Z,7.50
2018-04-18T03:08:25.605Z,7.50
2018-04-18T03:10:52.136Z,7.40
2018-04-18T03:13:18.671Z,7.30
2018-04-18T03:15:45.213Z,7.30
2018-04-18T03:18:11.745Z,7.30
2018-04-18T03:20:38.348Z,7.30
2018-04-18T03:23:05.629Z,7.30
2018-04-18T03:25:32.147Z,7.20
2018-04-18T03:27:58.705Z,7.20
2018-04-18T03:30:25.252Z,7.20
2018-04-18T03:32:51.786Z,7.10
2018-04-18T03:35:18.321Z,7.00
2018-04-18T03:37:44.859Z,7.00
2018-04-18T03:40:11.358Z,7.00
2018-04-18T03:42:37.893Z,7.00
2018-04-18T03:45:04.386Z,7.00
2018-04-18T03:47:31.741Z,6.90
2018-04-18T03:49:58.288Z,6.90
2018-04-18T03:52:24.904Z,6.90
2018-04-18T03:54:52.222Z,6.80
2018-04-18T03:57:18.753Z,6.80
2018-04-18T03:59:45.280Z,6.80
2018-04-18T04:02:11.900Z,6.80
2018-04-18T04:04:38.414Z,6.80
2018-04-18T04:07:04.921Z,6.80
2018-04-18T04:09:32.222Z,6.70
2018-04-18T04:11:59.525Z,6.70
2018-04-18T04:14:26.140Z,6.70
2018-04-18T04:17:04.832Z,6.70
2018-04-18T04:19:43.397Z,6.70
2018-04-18T04:22:22.680Z,6.70
2018-04-18T04:24:49.282Z,6.70
2018-04-18T04:27:15.849Z,6.60
2018-04-18T04:29:43.280Z,6.60
2018-04-18T04:32:09.850Z,6.60
2018-04-18T04:34:36.423Z,6.60
2018-04-18T04:37:02.981Z,6.70
2018-04-18T04:39:30.324Z,6.70
2018-04-18T04:41:56.907Z,6.70
2018-04-18T04:44:24.213Z,6.80
2018-04-18T04:46:50.744Z,6.70
2018-04-18T04:49:17.320Z,6.90
2018-04-18T04:51:44.612Z,6.90
2018-04-18T04:54:11.162Z,6.90
2018-04-18T04:56:37.693Z,7.00
2018-04-18T04:59:04.250Z,7.10
2018-04-18T05:01:30.749Z,7.10
2018-04-18T05:03:57.303Z,7.20
2018-04-18T05:06:23.861Z,7.30
2018-04-18T05:08:50.418Z,7.40
2018-04-18T05:11:16.956Z,7.50
2018-04-18T05:13:43.651Z,7.60
2018-04-18T05:16:10.188Z,7.60
2018-04-18T05:18:36.712Z,8.00
2018-04-18T05:21:06.921Z,8.10
2018-04-18T05:23:33.541Z,8.20
2018-04-18T05:26:00.144Z,8.30
2018-04-18T05:28:26.666Z,8.40
2018-04-18T05:30:54.022Z,9.00
2018-04-18T05:33:20.516Z,9.00
2018-04-18T05:35:47.070Z,9.10
2018-04-18T05:38:13.636Z,9.20
2018-04-18T05:40:40.159Z,9.40
2018-04-18T05:43:06.759Z,9.60
2018-04-18T05:45:33.336Z,9.70
2018-04-18T05:47:59.891Z,9.90
2018-04-18T05:50:26.429Z,10.10
2018-04-18T05:52:52.984Z,10.20
2018-04-18T05:55:19.623Z,10.40
2018-04-18T05:57:46.248Z,10.50
2018-04-18T06:00:12.902Z,10.70
2018-04-18T06:02:40.234Z,11.10
2018-04-18T06:05:06.919Z,11.00
2018-04-18T06:07:33.500Z,11.20
2018-04-18T06:10:00.195Z,11.40
2018-04-18T06:12:26.694Z,11.50
2018-04-18T06:14:53.234Z,11.60
2018-04-18T06:17:19.769Z,11.80
2018-04-18T06:19:46.426Z,11.80
2018-04-18T06:22:13.722Z,12.00
2018-04-18T06:24:40.286Z,12.00
2018-04-18T06:27:06.838Z,12.10
2018-04-18T06:29:33.435Z,12.20
2018-04-18T06:32:00.017Z,12.40
2018-04-18T06:34:26.637Z,12.50
2018-04-18T06:36:53.346Z,12.60
2018-04-18T06:39:19.977Z,12.70
2018-04-18T06:41:46.517Z,12.80
2018-04-18T06:44:13.036Z,13.00
2018-04-18T06:46:39.578Z,13.10
2018-04-18T06:49:06.115Z,13.10
2018-04-18T06:51:32.681Z,13.20
2018-04-18T06:53:59.289Z,13.50
2018-04-18T06:56:25.816Z,13.70
2018-04-18T06:58:52.401Z,14.00
2018-04-18T07:01:18.989Z,13.90
2018-04-18T07:03:45.577Z,13.90
2018-04-18T07:06:12.305Z,14.10
2018-04-18T07:08:38.864Z,14.30
2018-04-18T07:11:05.479Z,14.30
2018-04-18T07:13:32.044Z,14.40
2018-04-18T07:15:58.582Z,14.50
2018-04-18T07:18:25.102Z,14.80
2018-04-18T07:20:51.664Z,14.90
2018-04-18T07:23:18.201Z,15.20
2018-04-18T07:25:45.468Z,15.50
2018-04-18T07:28:12.737Z,15.70
2018-04-18T07:30:39.315Z,15.70
2018-04-18T07:33:05.845Z,16.10
2018-04-18T07:35:32.469Z,16.40
2018-04-18T07:37:59.002Z,16.70
2018-04-18T07:40:26.289Z,17.90
2018-04-18T07:42:52.818Z,17.80
2018-04-18T07:45:19.393Z,18.30
2018-04-18T07:47:45.998Z,18.00
2018-04-18T07:50:12.548Z,19.10
2018-04-18T07:52:39.826Z,20.60
2018-04-18T07:55:06.357Z,20.60
2018-04-18T07:57:32.929Z,21.30
2018-04-18T08:00:00.201Z,22.80
2018-04-18T08:02:26.775Z,22.80
2018-04-18T08:04:54.141Z,24.40
2018-04-18T08:07:20.724Z,24.30
2018-04-18T08:09:47.283Z,23.80
2018-04-18T08:12:13.825Z,23.80
2018-04-18T08:14:40.353Z,21.80
2018-04-18T08:17:06.870Z,22.30
2018-04-18T08:19:33.397Z,22.40
2018-04-18T08:22:00.034Z,21.30
2018-04-18T08:24:26.573Z,23.00
2018-04-18T08:26:53.092Z,23.90
2018-04-18T08:29:19.617Z,23.40
2018-04-18T08:31:46.228Z,25.00
2018-04-18T08:34:13.514Z,23.30
2018-04-18T08:36:40.181Z,23.20
2018-04-18T08:39:06.746Z,24.50
2018-04-18T08:41:34.108Z,26.00
2018-04-18T08:44:01.407Z,26.80
2018-04-18T08:46:27.951Z,26.70
2018-04-18T08:48:54.578Z,25.60
2018-04-18T08:51:21.062Z,25.40
2018-04-18T08:53:48.319Z,26.70
2018-04-18T08:56:14.843Z,26.60
2018-04-18T08:58:41.411Z,26.80
2018-04-18T09:01:07.913Z,25.90
2018-04-18T09:03:34.481Z,26.80
2018-04-18T09:06:01.007Z,26.20
2018-04-18T09:08:28.264Z,26.70
2018-04-18T09:10:55.544Z,27.60
2018-04-18T09:13:22.088Z,27.50
2018-04-18T09:15:48.649Z,27.90
2018-04-18T09:18:15.189Z,28.10
2018-04-18T09:20:41.828Z,26.50
2018-04-18T09:23:08.355Z,26.10
2018-04-18T09:25:34.918Z,24.80
2018-04-18T09:28:02.221Z,27.40
2018-04-18T09:30:28.746Z,27.40
2018-04-18T09:32:55.250Z,28.20
2018-04-18T09:35:22.519Z,28.70
2018-04-18T09:37:49.077Z,28.60
2018-04-18T09:40:15.695Z,27.90
2018-04-18T09:42:42.357Z,26.70
2018-04-18T09:45:08.858Z,28.60
2018-04-18T09:47:35.390Z,29.60
2018-04-18T09:50:02.870Z,29.90
2018-04-18T09:52:29.393Z,29.80
2018-04-18T09:54:55.932Z,29.50
2018-04-18T09:57:22.497Z,30.40
2018-04-18T09:59:49.014Z,30.50
2018-04-18T10:02:17.404Z,29.90
2018-04-18T10:04:43.984Z,27.70
2018-04-18T10:07:10.642Z,28.80
2018-04-18T10:09:38.033Z,30.70
2018-04-18T10:12:04.594Z,30.70
2018-04-18T10:14:31.148Z,30.70
2018-04-18T10:16:57.661Z,31.30
2018-04-18T10:19:24.216Z,31.20
2018-04-18T10:21:50.866Z,30.40
2018-04-18T10:24:17.392Z,31.30
2018-04-18T10:26:43.891Z,30.20
2018-04-18T10:29:10.417Z,31.00
2018-04-18T10:31:36.959Z,31.20
2018-04-18T10:34:03.482Z,30.80
2018-04-18T10:36:30.134Z,31.10
2018-04-18T10:38:56.705Z,30.70
2018-04-18T10:41:23.250Z,30.90
2018-04-18T10:43:49.772Z,30.70
2018-04-18T10:46:16.348Z,31.20
2018-04-18T10:48:42.863Z,31.60
2018-04-18T10:51:09.373Z,31.70
2018-04-18T10:53:35.869Z,33.10
2018-04-18T10:56:02.394Z,31.30
2018-04-18T10:58:28.936Z,31.30
2018-04-18T11:00:56.194Z,30.90
2018-04-18T11:03:22.764Z,30.90
2018-04-18T11:05:49.310Z,32.20
2018-04-18T11:08:15.824Z,32.00
2018-04-18T11:10:42.349Z,31.30
2018-04-18T11:13:08.870Z,30.70
2018-04-18T11:15:35.418Z,32.10
2018-04-18T11:18:01.968Z,30.80
2018-04-18T11:20:28.502Z,27.90
2018-04-18T11:22:55.034Z,29.30
2018-04-18T11:25:21.658Z,30.50
2018-04-18T11:27:48.178Z,31.30
2018-04-18T11:30:14.717Z,30.80
2018-04-18T11:32:41.236Z,31.00
2018-04-18T11:35:07.813Z,31.00
2018-04-18T11:37:34.423Z,31.30
2018-04-18T11:40:01.686Z,32.80
2018-04-18T11:42:29.205Z,32.80
2018-04-18T11:44:55.713Z,33.40
2018-04-18T11:47:22.211Z,33.80
2018-04-18T11:49:48.786Z,33.30
2018-04-18T11:52:16.047Z,33.80
2018-04-18T11:54:44.245Z,34.10
2018-04-18T11:57:10.779Z,34.10
2018-04-18T11:59:37.281Z,34.00
2018-04-18T12:02:04.638Z,34.50
2018-04-18T12:04:31.159Z,34.40
2018-04-18T12:06:57.676Z,32.50
2018-04-18T12:09:24.225Z,32.10
2018-04-18T12:11:50.765Z,32.50
2018-04-18T12:14:17.293Z,32.30
2018-04-18T12:16:43.891Z,33.40
2018-04-18T12:19:10.430Z,33.70
2018-04-18T12:21:36.980Z,34.90
2018-04-18T12:24:04.316Z,34.10
2018-04-18T12:26:30.852Z,34.00
2018-04-18T12:28:57.379Z,33.80
2018-04-18T12:31:23.918Z,33.70
2018-04-18T12:33:50.455Z,33.50
2018-04-18T12:36:16.979Z,33.10
2018-04-18T12:38:43.526Z,33.80
2018-04-18T12:41:10.070Z,34.10
2018-04-18T12:43:36.613Z,34.70
2018-04-18T12:46:03.283Z,35.30
2018-04-18T12:48:29.809Z,34.30
2018-04-18T12:50:57.267Z,34.00
2018-04-18T12:53:23.837Z,33.90
2018-04-18T12:55:50.344Z,32.80
2018-04-18T12:58:16.886Z,32.30
2018-04-18T13:00:43.490Z,32.50
2018-04-18T13:03:10.757Z,33.00
2018-04-18T13:05:37.295Z,32.90
2018-04-18T13:08:03.852Z,32.00
2018-04-18T13:10:30.368Z,32.00
2018-04-18T13:12:56.931Z,33.30
2018-04-18T13:15:23.476Z,32.60
2018-04-18T13:17:50.061Z,31.80
2018-04-18T13:20:17.317Z,32.40
2018-04-18T13:22:43.845Z,32.40
2018-04-18T13:25:10.369Z,32.80
2018-04-18T13:27:36.880Z,32.70
2018-04-18T13:30:03.412Z,32.80
2018-04-18T13:32:30.017Z,33.10
2018-04-18T13:34:56.550Z,32.70
2018-04-18T13:37:23.217Z,31.90
2018-04-18T13:39:49.840Z,31.50
2018-04-18T13:42:16.432Z,31.90
2018-04-18T13:44:43.008Z,31.60
2018-04-18T13:47:09.539Z,32.00
2018-04-18T13:49:36.074Z,32.80
2018-04-18T13:52:02.609Z,32.80
2018-04-18T13:54:29.148Z,31.70
2018-04-18T13:56:55.669Z,31.60
2018-04-18T13:59:22.981Z,31.30
2018-04-18T14:01:49.514Z,31.20
2018-04-18T14:04:16.080Z,30.90
2018-04-18T14:06:42.581Z,31.60
2018-04-18T14:09:09.124Z,30.90
2018-04-18T14:11:35.621Z,29.10
2018-04-18T14:14:02.158Z,27.30
2018-04-18T14:16:28.691Z,27.20
2018-04-18T14:18:55.218Z,26.50
2018-04-18T14:21:21.803Z,26.00
2018-04-18T14:23:48.335Z,25.90
2018-04-18T14:26:14.867Z,25.70
2018-04-18T14:28:41.403Z,25.60
2018-04-18T14:31:07.945Z,25.40
2018-04-18T14:33:34.481Z,25.00
2018-04-18T14:36:01.013Z,24.80
2018-04-18T14:38:27.562Z,24.60
2018-04-18T14:40:54.142Z,24.60
2018-04-18T14:43:20.681Z,24.70
2018-04-18T14:45:47.341Z,24.50
2018-04-18T14:48:13.941Z,24.40
2018-04-18T14:50:41.232Z,24.30
2018-04-18T14:53:07.745Z,24.30
2018-04-18T14:55:34.309Z,24.10
2018-04-18T14:58:00.883Z,24.00
2018-04-18T15:00:27.409Z,24.00
2018-04-18T15:02:54.005Z,24.10
2018-04-18T15:05:20.515Z,24.20
2018-04-18T15:07:47.023Z,24.00
2018-04-18T15:10:13.526Z,23.90
2018-04-18T15:12:40.041Z,23.90
2018-04-18T15:15:06.544Z,23.70
2018-04-18T15:17:33.080Z,23.70
2018-04-18T15:19:59.622Z,23.60
2018-04-18T15:22:26.179Z,23.70
2018-04-18T15:24:52.748Z,23.70
2018-04-18T15:27:19.317Z,23.80
2018-04-18T15:29:45.850Z,23.80
2018-04-18T15:32:12.411Z,23.70
2018-04-18T15:34:38.974Z,23.60
2018-04-18T15:37:05.485Z,23.60
2018-04-18T15:39:32.020Z,23.40
2018-04-18T15:41:59.340Z,22.90
2018-04-18T15:44:25.900Z,22.90
2018-04-18T15:46:53.148Z,22.90
2018-04-18T15:49:20.420Z,22.80
2018-04-18T15:51:47.682Z,22.70
2018-04-18T15:54:14.224Z,22.70
2018-04-18T15:56:40.820Z,22.70
2018-04-18T15:59:07.341Z,22.70
2018-04-18T16:01:33.875Z,22.60
2018-04-18T16:04:00.389Z,22.60
2018-04-18T16:06:26.910Z,22.60
2018-04-18T16:08:53.432Z,22.40
2018-04-18T16:11:19.949Z,22.40
2018-04-18T16:13:47.781Z,22.20
2018-04-18T16:16:15.088Z,22.10
2018-04-18T16:18:41.585Z,22.10
2018-04-18T16:21:08.101Z,22.00
2018-04-18T16:23:35.431Z,21.90
2018-04-18T16:26:02.637Z,21.80
2018-04-18T16:28:29.199Z,21.70
2018-04-18T16:30:55.725Z,21.80
2018-04-18T16:33:22.249Z,21.70
2018-04-18T16:35:48.821Z,21.60
2018-04-18T16:38:15.340Z,21.50
2018-04-18T16:40:41.925Z,21.50
2018-04-18T16:43:08.420Z,21.40
2018-04-18T16:45:34.929Z,21.40
2018-04-18T16:48:02.202Z,21.30
2018-04-18T16:50:28.775Z,21.30
2018-04-18T16:52:55.284Z,21.30
2018-04-18T16:55:21.882Z,21.20
2018-04-18T16:57:48.408Z,21.10
2018-04-18T17:00:15.676Z,21.10
2018-04-18T17:02:42.938Z,20.90
2018-04-18T17:05:09.485Z,20.90
2018-04-18T17:07:36.036Z,20.70
2018-04-18T17:10:02.595Z,20.60
2018-04-18T17:12:29.177Z,20.60
2018-04-18T17:14:55.741Z,20.50
2018-04-18T17:17:22.292Z,20.40
2018-04-18T17:19:48.835Z,20.30
2018-04-18T17:22:15.355Z,20.20
2018-04-18T17:24:41.897Z,20.20
2018-04-18T17:27:08.468Z,20.10
2018-04-18T17:29:35.011Z,20.00
2018-04-18T17:32:01.612Z,19.90
2018-04-18T17:34:28.265Z,19.80
2018-04-18T17:36:54.819Z,19.70
2018-04-18T17:39:21.447Z,19.50
2018-04-18T17:41:47.988Z,19.40
2018-04-18T17:44:14.616Z,19.30
2018-04-18T17:46:41.312Z,19.10
2018-04-18T17:49:08.616Z,18.60
2018-04-18T17:51:35.148Z,18.60
2018-04-18T17:54:02.452Z,18.20
2018-04-18T17:56:29.761Z,18.10
2018-04-18T17:58:56.306Z,18.00
2018-04-18T18:01:22.828Z,17.90
2018-04-18T18:03:49.409Z,17.70
2018-04-18T18:06:16.691Z,17.30
2018-04-18T18:08:43.246Z,17.30
2018-04-18T18:11:09.835Z,17.20
2018-04-18T18:13:37.096Z,17.20
2018-04-18T18:16:04.351Z,17.20
2018-04-18T18:18:30.873Z,17.20
2018-04-18T18:20:58.182Z,16.90
2018-04-18T18:23:24.705Z,16.80
2018-04-18T18:25:51.243Z,16.70
2018-04-18T18:28:17.752Z,16.60
2018-04-18T18:30:44.269Z,16.50
2018-04-18T18:33:11.616Z,16.30
2018-04-18T18:35:38.143Z,16.30
2018-04-18T18:38:04.702Z,16.10
2018-04-18T18:40:31.199Z,16.00
2018-04-18T18:42:57.725Z,15.80
2018-04-18T18:45:24.227Z,15.70
2018-04-18T18:47:50.917Z,15.60
2018-04-18T18:50:17.449Z,15.50
2018-04-18T18:52:43.996Z,15.40
2018-04-18T18:55:10.651Z,15.30
2018-04-18T18:57:38.300Z,15.10
2018-04-18T19:00:04.952Z,15.10
2018-04-18T19:02:32.325Z,14.90
2018-04-18T19:04:58.963Z,14.90
2018-04-18T19:07:25.687Z,14.80
2018-04-18T19:09:52.233Z,14.70
2018-04-18T19:12:19.505Z,14.50
2018-04-18T19:14:46.047Z,14.50
2018-04-18T19:17:12.624Z,14.50
2018-04-18T19:19:39.222Z,14.40
2018-04-18T19:22:05.768Z,14.30
2018-04-18T19:24:32.295Z,14.20
2018-04-18T19:26:58.848Z,14.10
2018-04-18T19:29:25.384Z,14.00
2018-04-18T19:31:51.956Z,14.00
2018-04-18T19:34:18.444Z,14.00
2018-04-18T19:36:45.175Z,13.90
2018-04-18T19:39:11.765Z,13.80
2018-04-18T19:41:39.352Z,13.70
2018-04-18T19:44:07.146Z,13.70
2018-04-18T19:46:33.720Z,13.60
2018-04-18T19:49:01.201Z,13.60
2018-04-18T19:51:27.722Z,13.50
2018-04-18T19:53:54.274Z,13.40
2018-04-18T19:56:20.876Z,13.40
2018-04-18T19:58:48.682Z,13.30
2018-04-18T20:01:16.574Z,13.20
2018-04-18T20:03:43.108Z,13.20
2018-04-18T20:06:09.650Z,13.20
2018-04-18T20:08:37.239Z,13.10
2018-04-18T20:11:04.523Z,13.00
2018-04-18T20:13:31.885Z,13.00
2018-04-18T20:15:58.447Z,13.00
2018-04-18T20:18:25.090Z,12.90
2018-04-18T20:20:51.708Z,12.90
2018-04-18T20:23:18.965Z,12.80
2018-04-18T20:25:45.490Z,12.70
2018-04-18T20:28:12.138Z,12.70
2018-04-18T20:30:38.680Z,12.60
2018-04-18T20:33:05.242Z,12.70
2018-04-18T20:35:31.782Z,12.60
2018-04-18T20:37:58.398Z,12.50
2018-04-18T20:40:24.987Z,12.40
2018-04-18T20:42:56.466Z,12.40
2018-04-18T20:45:23.835Z,12.30
2018-04-18T20:47:50.368Z,12.30
2018-04-18T20:50:16.913Z,12.20
2018-04-18T20:52:43.545Z,12.20
2018-04-18T20:55:10.119Z,12.10
2018-04-18T20:57:36.646Z,12.00
2018-04-18T21:00:03.248Z,12.00
2018-04-18T21:02:29.802Z,11.90
2018-04-18T21:04:56.316Z,11.90
2018-04-18T21:07:22.855Z,11.80
2018-04-18T21:09:49.512Z,11.80
2018-04-18T21:12:16.060Z,11.70
2018-04-18T21:14:42.601Z,11.70
2018-04-18T21:17:09.121Z,11.70
2018-04-18T21:19:35.681Z,11.60
2018-04-18T21:22:02.280Z,11.60
2018-04-18T21:24:28.816Z,11.50
2018-04-18T21:26:55.377Z,11.40
2018-04-18T21:29:21.969Z,11.40
2018-04-18T21:31:49.228Z,11.40
2018-04-18T21:34:15.853Z,11.40
2018-04-18T21:36:42.374Z,11.40
2018-04-18T21:39:09.023Z,11.40
2018-04-18T21:41:36.378Z,11.30
2018-04-18T21:44:02.999Z,11.30
2018-04-18T21:46:29.633Z,11.20
2018-04-18T21:48:56.272Z,11.20
2018-04-18T21:51:22.782Z,11.20
2018-04-18T21:53:49.293Z,11.10
2018-04-18T21:56:15.902Z,11.00
2018-04-18T21:58:42.444Z,11.00
2018-04-18T22:01:09.843Z,11.00
2018-04-18T22:03:36.422Z,10.90
2018-04-18T22:06:02.937Z,11.00
2018-04-18T22:08:29.536Z,10.90
2018-04-18T22:10:56.062Z,10.90
2018-04-18T22:13:22.610Z,10.80
2018-04-18T22:15:49.146Z,10.80
2018-04-18T22:18:15.654Z,10.70
2018-04-18T22:20:42.171Z,10.70
2018-04-18T22:23:08.697Z,10.80
2018-04-18T22:25:35.194Z,10.80
2018-04-18T22:28:01.734Z,10.70
2018-04-18T22:30:28.264Z,10.60
2018-04-18T22:32:54.787Z,10.50
2018-04-18T22:35:21.280Z,10.50
2018-04-18T22:37:47.792Z,10.40
2018-04-18T22:40:14.338Z,10.40
2018-04-18T22:42:40.871Z,10.50
2018-04-18T22:45:07.404Z,10.60
2018-04-18T22:47:33.947Z,10.60
2018-04-18T22:50:00.459Z,10.50
2018-04-18T22:52:27.180Z,10.40
2018-04-18T22:54:53.717Z,10.40
2018-04-18T22:57:20.255Z,10.30
2018-04-18T22:59:46.804Z,10.40
2018-04-18T23:02:13.342Z,10.30
2018-04-18T23:04:39.910Z,10.20
2018-04-18T23:07:06.441Z,10.20
2018-04-18T23:09:32.971Z,10.30
2018-04-18T23:11:59.503Z,10.20
2018-04-18T23:14:26.105Z,10.10
2018-04-18T23:16:52.665Z,10.10
2018-04-18T23:19:19.172Z,10.00
2018-04-18T23:21:45.705Z,9.90
2018-04-18T23:24:12.214Z,9.90
2018-04-18T23:26:38.733Z,9.80
2018-04-18T23:29:05.319Z,9.80
2018-04-18T23:31:31.874Z,9.70
2018-04-18T23:33:58.410Z,9.70
2018-04-18T23:36:24.924Z,9.70
2018-04-18T23:38:51.431Z,9.70
2018-04-18T23:41:17.963Z,9.80
2018-04-18T23:43:45.243Z,9.80
2018-04-18T23:46:11.728Z,9.80
2018-04-18T23:48:38.226Z,9.70
2018-04-18T23:51:04.764Z,9.60
2018-04-18T23:53:31.251Z,9.50
2018-04-18T23:55:57.790Z,9.50
2018-04-18T23:58:24.338Z,9.40
